sensor_id;sensor_type;location;lat;lon;timestamp;P1;durP1;ratioP1;P2;durP2;ratioP2
58760;SDS011;44529;47.464;19.014;2022-10-16T00:00:47;12.45;;;7.70;;
58760;SDS011;44529;47.464;19.014;2022-10-16T00:03:49;9.60;;;6.55;;
58760;SDS011;44529;47.464;19.014;2022-10-16T00:06:52;13.23;;;6.65;;
58760;SDS011;44529;47.464;19.014;2022-10-16T00:09:54;10.57;;;7.15;;
58760;SDS011;44529;47.464;19.014;2022-10-16T00:12:56;13.88;;;7.80;;
58760;SDS011;44529;47.464;19.014;2022-10-16T00:15:59;13.80;;;7.90;;
58760;SDS011;44529;47.464;19.014;2022-10-16T00:19:02;10.73;;;6.93;;
58760;SDS011;44529;47.464;19.014;2022-10-16T00:22:05;10.88;;;7.18;;
58760;SDS011;44529;47.464;19.014;2022-10-16T00:25:07;9.70;;;6.75;;
58760;SDS011;44529;47.464;19.014;2022-10-16T00:28:09;12.10;;;7.05;;
58760;SDS011;44529;47.464;19.014;2022-10-16T00:31:12;10.02;;;7.00;;
58760;SDS011;44529;47.464;19.014;2022-10-16T00:34:14;11.93;;;6.75;;
58760;SDS011;44529;47.464;19.014;2022-10-16T00:37:16;8.77;;;6.72;;
58760;SDS011;44529;47.464;19.014;2022-10-16T00:40:19;11.40;;;7.00;;
58760;SDS011;44529;47.464;19.014;2022-10-16T00:46:43;9.48;;;6.95;;
58760;SDS011;44529;47.464;19.014;2022-10-16T00:49:46;8.93;;;6.57;;
58760;SDS011;44529;47.464;19.014;2022-10-16T00:52:50;7.75;;;6.93;;
58760;SDS011;44529;47.464;19.014;2022-10-16T00:55:53;9.38;;;6.82;;
58760;SDS011;44529;47.464;19.014;2022-10-16T00:58:57;8.57;;;6.57;;
58760;SDS011;44529;47.464;19.014;2022-10-16T01:02:01;7.50;;;6.35;;
58760;SDS011;44529;47.464;19.014;2022-10-16T01:05:05;10.13;;;7.57;;
58760;SDS011;44529;47.464;19.014;2022-10-16T01:11:34;9.57;;;6.35;;
58760;SDS011;44529;47.464;19.014;2022-10-16T01:21:16;8.40;;;6.55;;
58760;SDS011;44529;47.464;19.014;2022-10-16T01:27:45;10.13;;;7.45;;
58760;SDS011;44529;47.464;19.014;2022-10-16T01:30:50;10.45;;;6.62;;
58760;SDS011;44529;47.464;19.014;2022-10-16T01:34:07;12.18;;;7.03;;
58760;SDS011;44529;47.464;19.014;2022-10-16T01:37:18;14.82;;;7.45;;
58760;SDS011;44529;47.464;19.014;2022-10-16T01:43:31;8.35;;;6.87;;
58760;SDS011;44529;47.464;19.014;2022-10-16T01:46:38;9.52;;;7.12;;
58760;SDS011;44529;47.464;19.014;2022-10-16T01:49:43;11.82;;;7.15;;
58760;SDS011;44529;47.464;19.014;2022-10-16T01:52:48;9.18;;;6.68;;
58760;SDS011;44529;47.464;19.014;2022-10-16T01:55:54;8.70;;;7.22;;
58760;SDS011;44529;47.464;19.014;2022-10-16T01:59:00;10.60;;;7.30;;
58760;SDS011;44529;47.464;19.014;2022-10-16T02:02:08;8.57;;;7.12;;
58760;SDS011;44529;47.464;19.014;2022-10-16T02:08:18;9.85;;;7.75;;
58760;SDS011;44529;47.464;19.014;2022-10-16T02:11:20;9.45;;;6.82;;
58760;SDS011;44529;47.464;19.014;2022-10-16T02:14:23;13.62;;;8.57;;
58760;SDS011;44529;47.464;19.014;2022-10-16T02:17:27;11.43;;;6.82;;
58760;SDS011;44529;47.464;19.014;2022-10-16T02:20:31;11.68;;;6.93;;
58760;SDS011;44529;47.464;19.014;2022-10-16T02:23:45;9.57;;;7.87;;
58760;SDS011;44529;47.464;19.014;2022-10-16T02:26:54;11.80;;;7.40;;
58760;SDS011;44529;47.464;19.014;2022-10-16T02:30:07;11.85;;;8.00;;
58760;SDS011;44529;47.464;19.014;2022-10-16T02:33:14;10.70;;;7.00;;
58760;SDS011;44529;47.464;19.014;2022-10-16T02:36:18;10.55;;;7.40;;
58760;SDS011;44529;47.464;19.014;2022-10-16T02:39:21;15.48;;;8.00;;
58760;SDS011;44529;47.464;19.014;2022-10-16T02:42:33;10.02;;;7.62;;
58760;SDS011;44529;47.464;19.014;2022-10-16T02:45:37;11.25;;;7.50;;
58760;SDS011;44529;47.464;19.014;2022-10-16T02:48:39;15.63;;;8.07;;
58760;SDS011;44529;47.464;19.014;2022-10-16T02:51:41;12.95;;;7.57;;
58760;SDS011;44529;47.464;19.014;2022-10-16T02:54:44;15.15;;;8.02;;
58760;SDS011;44529;47.464;19.014;2022-10-16T02:57:46;17.87;;;8.50;;
58760;SDS011;44529;47.464;19.014;2022-10-16T03:00:48;13.48;;;7.97;;
58760;SDS011;44529;47.464;19.014;2022-10-16T03:03:51;10.57;;;7.05;;
58760;SDS011;44529;47.464;19.014;2022-10-16T03:06:53;11.27;;;8.05;;
58760;SDS011;44529;47.464;19.014;2022-10-16T03:09:55;10.75;;;7.25;;
58760;SDS011;44529;47.464;19.014;2022-10-16T03:12:57;10.90;;;7.30;;
58760;SDS011;44529;47.464;19.014;2022-10-16T03:15:59;17.27;;;8.25;;
58760;SDS011;44529;47.464;19.014;2022-10-16T03:19:02;14.95;;;8.25;;
58760;SDS011;44529;47.464;19.014;2022-10-16T03:22:04;16.70;;;7.65;;
58760;SDS011;44529;47.464;19.014;2022-10-16T03:25:07;10.65;;;7.40;;
58760;SDS011;44529;47.464;19.014;2022-10-16T03:28:09;11.77;;;8.23;;
58760;SDS011;44529;47.464;19.014;2022-10-16T03:31:11;8.90;;;7.10;;
58760;SDS011;44529;47.464;19.014;2022-10-16T03:34:14;11.65;;;7.70;;
58760;SDS011;44529;47.464;19.014;2022-10-16T03:37:16;12.57;;;7.75;;
58760;SDS011;44529;47.464;19.014;2022-10-16T03:40:18;10.88;;;7.93;;
58760;SDS011;44529;47.464;19.014;2022-10-16T03:43:21;12.35;;;7.53;;
58760;SDS011;44529;47.464;19.014;2022-10-16T03:46:23;12.50;;;7.40;;
58760;SDS011;44529;47.464;19.014;2022-10-16T03:49:25;12.13;;;7.43;;
58760;SDS011;44529;47.464;19.014;2022-10-16T03:52:28;11.12;;;7.60;;
58760;SDS011;44529;47.464;19.014;2022-10-16T03:55:30;10.85;;;7.28;;
58760;SDS011;44529;47.464;19.014;2022-10-16T03:58:32;11.60;;;7.87;;
58760;SDS011;44529;47.464;19.014;2022-10-16T04:01:35;10.70;;;7.32;;
58760;SDS011;44529;47.464;19.014;2022-10-16T04:04:37;16.65;;;7.68;;
58760;SDS011;44529;47.464;19.014;2022-10-16T04:07:39;11.50;;;7.40;;
58760;SDS011;44529;47.464;19.014;2022-10-16T04:10:42;10.68;;;7.25;;
58760;SDS011;44529;47.464;19.014;2022-10-16T04:13:45;11.77;;;7.85;;
58760;SDS011;44529;47.464;19.014;2022-10-16T04:16:47;9.43;;;7.43;;
58760;SDS011;44529;47.464;19.014;2022-10-16T04:19:49;12.20;;;8.50;;
58760;SDS011;44529;47.464;19.014;2022-10-16T04:22:52;10.05;;;7.20;;
58760;SDS011;44529;47.464;19.014;2022-10-16T04:25:54;11.27;;;7.70;;
58760;SDS011;44529;47.464;19.014;2022-10-16T04:28:56;11.00;;;7.80;;
58760;SDS011;44529;47.464;19.014;2022-10-16T04:31:59;9.30;;;7.93;;
58760;SDS011;44529;47.464;19.014;2022-10-16T04:35:01;11.57;;;8.40;;
58760;SDS011;44529;47.464;19.014;2022-10-16T04:38:04;10.77;;;7.35;;
58760;SDS011;44529;47.464;19.014;2022-10-16T04:41:07;15.40;;;9.07;;
58760;SDS011;44529;47.464;19.014;2022-10-16T04:44:09;11.23;;;8.10;;
58760;SDS011;44529;47.464;19.014;2022-10-16T04:47:11;11.60;;;8.05;;
58760;SDS011;44529;47.464;19.014;2022-10-16T04:50:14;12.45;;;7.95;;
58760;SDS011;44529;47.464;19.014;2022-10-16T04:53:34;8.40;;;7.12;;
58760;SDS011;44529;47.464;19.014;2022-10-16T04:56:36;9.02;;;7.50;;
58760;SDS011;44529;47.464;19.014;2022-10-16T04:59:45;11.82;;;7.90;;
58760;SDS011;44529;47.464;19.014;2022-10-16T05:02:47;10.98;;;7.65;;
58760;SDS011;44529;47.464;19.014;2022-10-16T05:05:51;11.95;;;8.55;;
58760;SDS011;44529;47.464;19.014;2022-10-16T05:08:53;14.77;;;7.95;;
58760;SDS011;44529;47.464;19.014;2022-10-16T05:11:55;12.07;;;7.97;;
58760;SDS011;44529;47.464;19.014;2022-10-16T05:14:57;20.55;;;8.48;;
58760;SDS011;44529;47.464;19.014;2022-10-16T05:18:00;21.52;;;8.98;;
58760;SDS011;44529;47.464;19.014;2022-10-16T05:21:03;24.67;;;8.57;;
58760;SDS011;44529;47.464;19.014;2022-10-16T05:24:05;15.82;;;8.18;;
58760;SDS011;44529;47.464;19.014;2022-10-16T05:27:07;18.77;;;8.90;;
58760;SDS011;44529;47.464;19.014;2022-10-16T05:30:10;15.02;;;8.32;;
58760;SDS011;44529;47.464;19.014;2022-10-16T05:33:13;14.73;;;8.05;;
58760;SDS011;44529;47.464;19.014;2022-10-16T05:36:16;19.60;;;8.32;;
58760;SDS011;44529;47.464;19.014;2022-10-16T05:39:19;16.83;;;8.27;;
58760;SDS011;44529;47.464;19.014;2022-10-16T05:42:22;26.65;;;9.07;;
58760;SDS011;44529;47.464;19.014;2022-10-16T05:45:24;20.98;;;8.27;;
58760;SDS011;44529;47.464;19.014;2022-10-16T05:48:26;19.12;;;8.18;;
58760;SDS011;44529;47.464;19.014;2022-10-16T05:51:29;13.93;;;8.55;;
58760;SDS011;44529;47.464;19.014;2022-10-16T05:54:31;11.88;;;8.63;;
58760;SDS011;44529;47.464;19.014;2022-10-16T05:57:33;12.30;;;8.38;;
58760;SDS011;44529;47.464;19.014;2022-10-16T06:00:36;12.13;;;8.70;;
58760;SDS011;44529;47.464;19.014;2022-10-16T06:03:38;13.32;;;9.23;;
58760;SDS011;44529;47.464;19.014;2022-10-16T06:06:41;11.57;;;8.85;;
58760;SDS011;44529;47.464;19.014;2022-10-16T06:09:43;15.13;;;9.27;;
58760;SDS011;44529;47.464;19.014;2022-10-16T06:12:45;16.25;;;9.50;;
58760;SDS011;44529;47.464;19.014;2022-10-16T06:15:47;17.05;;;9.60;;
58760;SDS011;44529;47.464;19.014;2022-10-16T06:18:50;13.68;;;8.73;;
58760;SDS011;44529;47.464;19.014;2022-10-16T06:21:53;18.75;;;9.73;;
58760;SDS011;44529;47.464;19.014;2022-10-16T06:24:56;14.68;;;9.48;;
58760;SDS011;44529;47.464;19.014;2022-10-16T06:27:59;17.15;;;9.65;;
58760;SDS011;44529;47.464;19.014;2022-10-16T06:31:01;15.38;;;9.18;;
58760;SDS011;44529;47.464;19.014;2022-10-16T06:34:09;14.87;;;9.45;;
58760;SDS011;44529;47.464;19.014;2022-10-16T06:37:13;15.05;;;9.60;;
58760;SDS011;44529;47.464;19.014;2022-10-16T06:40:15;12.10;;;9.02;;
58760;SDS011;44529;47.464;19.014;2022-10-16T06:43:17;16.73;;;9.05;;
58760;SDS011;44529;47.464;19.014;2022-10-16T06:46:21;11.35;;;8.43;;
58760;SDS011;44529;47.464;19.014;2022-10-16T06:49:25;14.50;;;9.25;;
58760;SDS011;44529;47.464;19.014;2022-10-16T06:52:28;14.25;;;9.20;;
58760;SDS011;44529;47.464;19.014;2022-10-16T06:55:30;10.00;;;8.98;;
58760;SDS011;44529;47.464;19.014;2022-10-16T06:58:32;12.18;;;9.32;;
58760;SDS011;44529;47.464;19.014;2022-10-16T07:01:34;9.48;;;8.43;;
58760;SDS011;44529;47.464;19.014;2022-10-16T07:04:37;14.87;;;9.45;;
58760;SDS011;44529;47.464;19.014;2022-10-16T07:07:39;11.18;;;9.27;;
58760;SDS011;44529;47.464;19.014;2022-10-16T07:10:41;13.70;;;9.77;;
58760;SDS011;44529;47.464;19.014;2022-10-16T07:13:44;14.93;;;9.20;;
58760;SDS011;44529;47.464;19.014;2022-10-16T07:16:55;14.80;;;10.18;;
58760;SDS011;44529;47.464;19.014;2022-10-16T07:19:57;10.75;;;9.02;;
58760;SDS011;44529;47.464;19.014;2022-10-16T07:23:00;10.77;;;8.85;;
58760;SDS011;44529;47.464;19.014;2022-10-16T07:26:02;11.82;;;8.85;;
58760;SDS011;44529;47.464;19.014;2022-10-16T07:29:12;10.57;;;8.80;;
58760;SDS011;44529;47.464;19.014;2022-10-16T07:32:19;12.43;;;8.63;;
58760;SDS011;44529;47.464;19.014;2022-10-16T07:35:22;14.02;;;9.27;;
58760;SDS011;44529;47.464;19.014;2022-10-16T07:38:24;15.00;;;8.18;;
58760;SDS011;44529;47.464;19.014;2022-10-16T07:41:26;16.10;;;9.70;;
58760;SDS011;44529;47.464;19.014;2022-10-16T07:44:29;14.13;;;9.07;;
58760;SDS011;44529;47.464;19.014;2022-10-16T07:47:32;12.00;;;9.30;;
58760;SDS011;44529;47.464;19.014;2022-10-16T07:50:34;15.43;;;9.30;;
58760;SDS011;44529;47.464;19.014;2022-10-16T07:53:36;9.90;;;8.52;;
58760;SDS011;44529;47.464;19.014;2022-10-16T07:56:38;13.77;;;8.82;;
58760;SDS011;44529;47.464;19.014;2022-10-16T07:59:45;13.98;;;8.82;;
58760;SDS011;44529;47.464;19.014;2022-10-16T08:02:47;11.63;;;8.55;;
58760;SDS011;44529;47.464;19.014;2022-10-16T08:05:50;15.65;;;9.10;;
58760;SDS011;44529;47.464;19.014;2022-10-16T08:08:52;14.13;;;9.10;;
58760;SDS011;44529;47.464;19.014;2022-10-16T08:11:55;10.32;;;8.45;;
58760;SDS011;44529;47.464;19.014;2022-10-16T08:15:03;13.32;;;8.40;;
58760;SDS011;44529;47.464;19.014;2022-10-16T08:18:05;10.85;;;8.73;;
58760;SDS011;44529;47.464;19.014;2022-10-16T08:21:10;15.07;;;8.23;;
58760;SDS011;44529;47.464;19.014;2022-10-16T08:24:22;12.90;;;8.43;;
58760;SDS011;44529;47.464;19.014;2022-10-16T08:27:24;14.75;;;8.93;;
58760;SDS011;44529;47.464;19.014;2022-10-16T08:30:27;13.10;;;8.90;;
58760;SDS011;44529;47.464;19.014;2022-10-16T08:33:29;14.23;;;8.65;;
58760;SDS011;44529;47.464;19.014;2022-10-16T08:36:31;13.20;;;9.20;;
58760;SDS011;44529;47.464;19.014;2022-10-16T08:39:34;11.23;;;8.50;;
58760;SDS011;44529;47.464;19.014;2022-10-16T08:49:55;13.18;;;8.40;;
58760;SDS011;44529;47.464;19.014;2022-10-16T08:53:00;13.88;;;8.25;;
58760;SDS011;44529;47.464;19.014;2022-10-16T08:56:02;13.73;;;8.73;;
58760;SDS011;44529;47.464;19.014;2022-10-16T08:59:06;12.75;;;8.48;;
58760;SDS011;44529;47.464;19.014;2022-10-16T09:05:47;11.85;;;8.02;;
58760;SDS011;44529;47.464;19.014;2022-10-16T09:15:47;12.50;;;8.18;;
58760;SDS011;44529;47.464;19.014;2022-10-16T09:22:25;10.18;;;8.15;;
58760;SDS011;44529;47.464;19.014;2022-10-16T09:25:30;10.88;;;8.07;;
58760;SDS011;44529;47.464;19.014;2022-10-16T09:28:34;11.38;;;8.00;;
58760;SDS011;44529;47.464;19.014;2022-10-16T09:31:36;11.48;;;7.80;;
58760;SDS011;44529;47.464;19.014;2022-10-16T09:34:42;12.05;;;8.10;;
58760;SDS011;44529;47.464;19.014;2022-10-16T09:37:49;8.88;;;7.95;;
58760;SDS011;44529;47.464;19.014;2022-10-16T09:40:56;9.80;;;7.87;;
58760;SDS011;44529;47.464;19.014;2022-10-16T09:44:04;12.68;;;8.02;;
58760;SDS011;44529;47.464;19.014;2022-10-16T09:47:23;12.35;;;7.32;;
58760;SDS011;44529;47.464;19.014;2022-10-16T09:50:28;9.15;;;7.87;;
58760;SDS011;44529;47.464;19.014;2022-10-16T09:53:38;11.35;;;8.05;;
58760;SDS011;44529;47.464;19.014;2022-10-16T09:56:45;13.25;;;8.23;;
58760;SDS011;44529;47.464;19.014;2022-10-16T09:59:52;13.25;;;7.80;;
58760;SDS011;44529;47.464;19.014;2022-10-16T10:02:54;11.93;;;7.80;;
58760;SDS011;44529;47.464;19.014;2022-10-16T10:06:04;12.13;;;8.18;;
58760;SDS011;44529;47.464;19.014;2022-10-16T10:12:23;10.20;;;7.78;;
58760;SDS011;44529;47.464;19.014;2022-10-16T10:15:29;10.30;;;8.10;;
58760;SDS011;44529;47.464;19.014;2022-10-16T10:18:36;11.73;;;8.02;;
58760;SDS011;44529;47.464;19.014;2022-10-16T10:21:39;14.32;;;8.30;;
58760;SDS011;44529;47.464;19.014;2022-10-16T10:24:41;13.00;;;8.10;;
58760;SDS011;44529;47.464;19.014;2022-10-16T10:31:20;9.38;;;7.70;;
58760;SDS011;44529;47.464;19.014;2022-10-16T10:38:06;9.68;;;6.80;;
58760;SDS011;44529;47.464;19.014;2022-10-16T10:55:51;7.70;;;6.07;;
58760;SDS011;44529;47.464;19.014;2022-10-16T11:02:37;8.30;;;5.85;;
58760;SDS011;44529;47.464;19.014;2022-10-16T11:05:44;6.43;;;5.80;;
58760;SDS011;44529;47.464;19.014;2022-10-16T11:09:02;7.87;;;5.97;;
58760;SDS011;44529;47.464;19.014;2022-10-16T11:15:47;10.13;;;5.82;;
58760;SDS011;44529;47.464;19.014;2022-10-16T11:21:58;8.55;;;5.57;;
58760;SDS011;44529;47.464;19.014;2022-10-16T11:25:11;8.32;;;5.28;;
58760;SDS011;44529;47.464;19.014;2022-10-16T11:31:39;9.50;;;5.50;;
58760;SDS011;44529;47.464;19.014;2022-10-16T11:34:50;7.32;;;4.93;;
58760;SDS011;44529;47.464;19.014;2022-10-16T11:37:57;8.50;;;5.20;;
58760;SDS011;44529;47.464;19.014;2022-10-16T11:48:00;7.12;;;4.75;;
58760;SDS011;44529;47.464;19.014;2022-10-16T11:58:00;5.62;;;5.00;;
58760;SDS011;44529;47.464;19.014;2022-10-16T12:04:14;8.02;;;4.82;;
58760;SDS011;44529;47.464;19.014;2022-10-16T12:07:36;7.78;;;4.87;;
58760;SDS011;44529;47.464;19.014;2022-10-16T12:10:43;6.45;;;4.55;;
58760;SDS011;44529;47.464;19.014;2022-10-16T12:13:47;4.93;;;4.43;;
58760;SDS011;44529;47.464;19.014;2022-10-16T12:16:51;6.30;;;4.72;;
58760;SDS011;44529;47.464;19.014;2022-10-16T12:20:21;7.22;;;4.50;;
58760;SDS011;44529;47.464;19.014;2022-10-16T12:23:33;7.65;;;4.47;;
58760;SDS011;44529;47.464;19.014;2022-10-16T12:26:40;6.20;;;4.35;;
58760;SDS011;44529;47.464;19.014;2022-10-16T12:29:47;8.52;;;4.78;;
58760;SDS011;44529;47.464;19.014;2022-10-16T12:33:02;5.90;;;4.47;;
58760;SDS011;44529;47.464;19.014;2022-10-16T12:36:11;6.43;;;4.40;;
58760;SDS011;44529;47.464;19.014;2022-10-16T12:39:27;9.85;;;5.15;;
58760;SDS011;44529;47.464;19.014;2022-10-16T12:45:32;5.70;;;4.60;;
58760;SDS011;44529;47.464;19.014;2022-10-16T12:48:37;5.55;;;4.75;;
58760;SDS011;44529;47.464;19.014;2022-10-16T12:51:56;8.13;;;4.78;;
58760;SDS011;44529;47.464;19.014;2022-10-16T12:54:59;6.97;;;5.15;;
58760;SDS011;44529;47.464;19.014;2022-10-16T13:18:15;6.28;;;4.90;;
58760;SDS011;44529;47.464;19.014;2022-10-16T13:31:09;7.40;;;4.20;;
58760;SDS011;44529;47.464;19.014;2022-10-16T13:34:19;5.85;;;4.28;;
58760;SDS011;44529;47.464;19.014;2022-10-16T13:37:24;4.97;;;4.05;;
58760;SDS011;44529;47.464;19.014;2022-10-16T13:40:27;7.22;;;4.30;;
58760;SDS011;44529;47.464;19.014;2022-10-16T13:43:33;4.75;;;4.30;;
58760;SDS011;44529;47.464;19.014;2022-10-16T13:46:41;6.43;;;4.10;;
58760;SDS011;44529;47.464;19.014;2022-10-16T13:49:43;5.75;;;3.90;;
58760;SDS011;44529;47.464;19.014;2022-10-16T13:52:46;6.43;;;4.65;;
58760;SDS011;44529;47.464;19.014;2022-10-16T13:55:48;5.07;;;4.10;;
58760;SDS011;44529;47.464;19.014;2022-10-16T13:59:01;4.93;;;4.35;;
58760;SDS011;44529;47.464;19.014;2022-10-16T14:02:16;5.18;;;4.30;;
58760;SDS011;44529;47.464;19.014;2022-10-16T14:05:24;7.82;;;4.70;;
58760;SDS011;44529;47.464;19.014;2022-10-16T14:08:26;5.50;;;4.60;;
58760;SDS011;44529;47.464;19.014;2022-10-16T14:11:30;5.40;;;3.97;;
58760;SDS011;44529;47.464;19.014;2022-10-16T14:14:54;8.18;;;4.35;;
58760;SDS011;44529;47.464;19.014;2022-10-16T14:17:56;5.03;;;4.30;;
58760;SDS011;44529;47.464;19.014;2022-10-16T14:21:05;5.50;;;4.53;;
58760;SDS011;44529;47.464;19.014;2022-10-16T14:24:12;6.25;;;4.12;;
58760;SDS011;44529;47.464;19.014;2022-10-16T14:27:55;5.45;;;4.22;;
58760;SDS011;44529;47.464;19.014;2022-10-16T14:30:51;5.95;;;4.18;;
58760;SDS011;44529;47.464;19.014;2022-10-16T14:33:56;5.68;;;3.87;;
58760;SDS011;44529;47.464;19.014;2022-10-16T14:37:08;8.65;;;3.95;;
58760;SDS011;44529;47.464;19.014;2022-10-16T14:40:32;4.50;;;3.78;;
58760;SDS011;44529;47.464;19.014;2022-10-16T14:43:37;6.10;;;3.80;;
58760;SDS011;44529;47.464;19.014;2022-10-16T14:46:43;6.25;;;3.97;;
58760;SDS011;44529;47.464;19.014;2022-10-16T14:49:46;7.47;;;4.00;;
58760;SDS011;44529;47.464;19.014;2022-10-16T14:52:48;4.30;;;3.90;;
58760;SDS011;44529;47.464;19.014;2022-10-16T14:55:51;5.45;;;4.15;;
58760;SDS011;44529;47.464;19.014;2022-10-16T14:58:53;6.72;;;4.28;;
58760;SDS011;44529;47.464;19.014;2022-10-16T15:01:57;6.15;;;4.25;;
58760;SDS011;44529;47.464;19.014;2022-10-16T15:05:13;6.62;;;4.07;;
58760;SDS011;44529;47.464;19.014;2022-10-16T15:08:19;6.03;;;4.47;;
58760;SDS011;44529;47.464;19.014;2022-10-16T15:11:21;6.65;;;4.93;;
58760;SDS011;44529;47.464;19.014;2022-10-16T15:14:23;6.22;;;4.40;;
58760;SDS011;44529;47.464;19.014;2022-10-16T15:17:26;6.78;;;4.37;;
58760;SDS011;44529;47.464;19.014;2022-10-16T15:20:30;4.85;;;4.40;;
58760;SDS011;44529;47.464;19.014;2022-10-16T15:23:35;6.87;;;4.32;;
58760;SDS011;44529;47.464;19.014;2022-10-16T15:26:38;5.15;;;4.65;;
58760;SDS011;44529;47.464;19.014;2022-10-16T15:29:40;7.68;;;4.40;;
58760;SDS011;44529;47.464;19.014;2022-10-16T15:32:43;5.53;;;4.70;;
58760;SDS011;44529;47.464;19.014;2022-10-16T15:35:51;7.18;;;4.40;;
58760;SDS011;44529;47.464;19.014;2022-10-16T15:38:54;5.10;;;4.60;;
58760;SDS011;44529;47.464;19.014;2022-10-16T15:41:57;5.87;;;5.03;;
58760;SDS011;44529;47.464;19.014;2022-10-16T15:44:59;5.47;;;4.85;;
58760;SDS011;44529;47.464;19.014;2022-10-16T15:48:01;7.97;;;4.50;;
58760;SDS011;44529;47.464;19.014;2022-10-16T15:51:04;6.55;;;5.28;;
58760;SDS011;44529;47.464;19.014;2022-10-16T15:54:08;9.13;;;5.25;;
58760;SDS011;44529;47.464;19.014;2022-10-16T15:57:11;8.55;;;5.10;;
58760;SDS011;44529;47.464;19.014;2022-10-16T16:00:17;8.73;;;5.30;;
58760;SDS011;44529;47.464;19.014;2022-10-16T16:03:23;10.65;;;6.07;;
58760;SDS011;44529;47.464;19.014;2022-10-16T16:06:25;6.95;;;5.78;;
58760;SDS011;44529;47.464;19.014;2022-10-16T16:09:28;6.95;;;5.37;;
58760;SDS011;44529;47.464;19.014;2022-10-16T16:12:31;10.55;;;6.75;;
58760;SDS011;44529;47.464;19.014;2022-10-16T16:15:34;10.93;;;6.90;;
58760;SDS011;44529;47.464;19.014;2022-10-16T16:18:36;11.98;;;6.65;;
58760;SDS011;44529;47.464;19.014;2022-10-16T16:21:39;11.18;;;8.15;;
58760;SDS011;44529;47.464;19.014;2022-10-16T16:24:41;13.82;;;7.72;;
58760;SDS011;44529;47.464;19.014;2022-10-16T16:27:43;14.90;;;7.87;;
58760;SDS011;44529;47.464;19.014;2022-10-16T16:30:46;14.57;;;8.07;;
58760;SDS011;44529;47.464;19.014;2022-10-16T16:33:53;9.80;;;6.93;;
58760;SDS011;44529;47.464;19.014;2022-10-16T16:36:56;16.62;;;6.82;;
58760;SDS011;44529;47.464;19.014;2022-10-16T16:39:58;14.13;;;7.05;;
58760;SDS011;44529;47.464;19.014;2022-10-16T16:43:00;12.70;;;6.50;;
58760;SDS011;44529;47.464;19.014;2022-10-16T16:46:03;11.25;;;7.07;;
58760;SDS011;44529;47.464;19.014;2022-10-16T16:49:05;16.45;;;6.82;;
58760;SDS011;44529;47.464;19.014;2022-10-16T16:52:08;15.32;;;7.47;;
58760;SDS011;44529;47.464;19.014;2022-10-16T16:55:11;15.20;;;7.75;;
58760;SDS011;44529;47.464;19.014;2022-10-16T16:58:13;12.23;;;6.97;;
58760;SDS011;44529;47.464;19.014;2022-10-16T17:01:15;10.57;;;7.62;;
58760;SDS011;44529;47.464;19.014;2022-10-16T17:04:22;12.00;;;8.07;;
58760;SDS011;44529;47.464;19.014;2022-10-16T17:07:25;16.52;;;8.30;;
58760;SDS011;44529;47.464;19.014;2022-10-16T17:10:29;11.15;;;8.18;;
58760;SDS011;44529;47.464;19.014;2022-10-16T17:13:32;12.05;;;8.20;;
58760;SDS011;44529;47.464;19.014;2022-10-16T17:16:39;12.45;;;7.47;;
58760;SDS011;44529;47.464;19.014;2022-10-16T17:19:45;17.05;;;7.60;;
58760;SDS011;44529;47.464;19.014;2022-10-16T17:22:47;13.35;;;7.35;;
58760;SDS011;44529;47.464;19.014;2022-10-16T17:25:49;15.63;;;8.15;;
58760;SDS011;44529;47.464;19.014;2022-10-16T17:28:53;10.55;;;7.00;;
58760;SDS011;44529;47.464;19.014;2022-10-16T17:31:56;10.00;;;7.53;;
58760;SDS011;44529;47.464;19.014;2022-10-16T17:35:00;9.65;;;7.25;;
58760;SDS011;44529;47.464;19.014;2022-10-16T17:38:02;9.98;;;7.45;;
58760;SDS011;44529;47.464;19.014;2022-10-16T17:44:20;11.60;;;7.72;;
58760;SDS011;44529;47.464;19.014;2022-10-16T17:47:23;11.90;;;7.78;;
58760;SDS011;44529;47.464;19.014;2022-10-16T17:50:25;12.82;;;8.02;;
58760;SDS011;44529;47.464;19.014;2022-10-16T17:53:27;16.87;;;9.00;;
58760;SDS011;44529;47.464;19.014;2022-10-16T17:56:30;15.25;;;9.75;;
58760;SDS011;44529;47.464;19.014;2022-10-16T17:59:32;12.02;;;8.80;;
58760;SDS011;44529;47.464;19.014;2022-10-16T18:02:34;20.10;;;9.45;;
58760;SDS011;44529;47.464;19.014;2022-10-16T18:05:37;17.00;;;9.45;;
58760;SDS011;44529;47.464;19.014;2022-10-16T18:08:39;14.23;;;9.45;;
58760;SDS011;44529;47.464;19.014;2022-10-16T18:11:41;13.55;;;8.25;;
58760;SDS011;44529;47.464;19.014;2022-10-16T18:14:43;15.23;;;9.40;;
58760;SDS011;44529;47.464;19.014;2022-10-16T18:17:46;14.05;;;8.50;;
58760;SDS011;44529;47.464;19.014;2022-10-16T18:20:55;19.40;;;9.70;;
58760;SDS011;44529;47.464;19.014;2022-10-16T18:24:01;12.93;;;8.90;;
58760;SDS011;44529;47.464;19.014;2022-10-16T18:27:03;16.75;;;8.85;;
58760;SDS011;44529;47.464;19.014;2022-10-16T18:30:05;12.23;;;8.50;;
58760;SDS011;44529;47.464;19.014;2022-10-16T18:33:08;15.02;;;8.75;;
58760;SDS011;44529;47.464;19.014;2022-10-16T18:36:10;12.75;;;9.27;;
58760;SDS011;44529;47.464;19.014;2022-10-16T18:39:12;13.70;;;9.15;;
58760;SDS011;44529;47.464;19.014;2022-10-16T18:42:17;14.52;;;9.85;;
58760;SDS011;44529;47.464;19.014;2022-10-16T18:45:20;15.30;;;9.15;;
58760;SDS011;44529;47.464;19.014;2022-10-16T18:48:23;13.25;;;9.60;;
58760;SDS011;44529;47.464;19.014;2022-10-16T18:51:26;15.70;;;10.02;;
58760;SDS011;44529;47.464;19.014;2022-10-16T18:54:31;11.73;;;9.18;;
58760;SDS011;44529;47.464;19.014;2022-10-16T18:57:33;16.55;;;10.52;;
58760;SDS011;44529;47.464;19.014;2022-10-16T19:00:36;15.60;;;9.88;;
58760;SDS011;44529;47.464;19.014;2022-10-16T19:03:38;14.05;;;9.65;;
58760;SDS011;44529;47.464;19.014;2022-10-16T19:06:43;12.68;;;9.52;;
58760;SDS011;44529;47.464;19.014;2022-10-16T19:09:47;15.77;;;9.45;;
58760;SDS011;44529;47.464;19.014;2022-10-16T19:12:49;13.35;;;9.85;;
58760;SDS011;44529;47.464;19.014;2022-10-16T19:15:51;15.45;;;9.45;;
58760;SDS011;44529;47.464;19.014;2022-10-16T19:19:00;14.20;;;9.70;;
58760;SDS011;44529;47.464;19.014;2022-10-16T19:22:05;17.00;;;9.77;;
58760;SDS011;44529;47.464;19.014;2022-10-16T19:25:29;15.57;;;9.77;;
58760;SDS011;44529;47.464;19.014;2022-10-16T19:28:31;14.65;;;10.48;;
58760;SDS011;44529;47.464;19.014;2022-10-16T19:31:34;14.50;;;9.68;;
58760;SDS011;44529;47.464;19.014;2022-10-16T19:34:36;13.57;;;9.32;;
58760;SDS011;44529;47.464;19.014;2022-10-16T19:37:38;12.90;;;10.23;;
58760;SDS011;44529;47.464;19.014;2022-10-16T19:40:40;16.35;;;9.38;;
58760;SDS011;44529;47.464;19.014;2022-10-16T19:43:44;15.35;;;10.15;;
58760;SDS011;44529;47.464;19.014;2022-10-16T19:46:47;14.27;;;10.27;;
58760;SDS011;44529;47.464;19.014;2022-10-16T19:49:50;14.00;;;9.63;;
58760;SDS011;44529;47.464;19.014;2022-10-16T19:52:53;12.20;;;9.45;;
58760;SDS011;44529;47.464;19.014;2022-10-16T19:55:56;15.38;;;9.98;;
58760;SDS011;44529;47.464;19.014;2022-10-16T19:58:58;16.20;;;10.88;;
58760;SDS011;44529;47.464;19.014;2022-10-16T20:02:01;12.70;;;10.20;;
58760;SDS011;44529;47.464;19.014;2022-10-16T20:05:04;10.85;;;9.43;;
58760;SDS011;44529;47.464;19.014;2022-10-16T20:08:06;15.25;;;10.18;;
58760;SDS011;44529;47.464;19.014;2022-10-16T20:11:09;15.88;;;10.30;;
58760;SDS011;44529;47.464;19.014;2022-10-16T20:14:13;12.65;;;10.68;;
58760;SDS011;44529;47.464;19.014;2022-10-16T20:17:16;15.07;;;9.63;;
58760;SDS011;44529;47.464;19.014;2022-10-16T20:20:18;13.13;;;10.27;;